sensor_id;sensor_type;location;lat;lon;timestamp;P1;P2;P0
35654;PMS1003;21773;50.010;19.972;2023-05-01T00:01:58;9.60;9.60;8.00
35654;PMS1003;21773;50.010;19.972;2023-05-01T00:05:02;12.00;11.00;10.00
35654;PMS1003;21773;50.010;19.972;2023-05-01T00:08:06;11.00;9.80;7.80
35654;PMS1003;21773;50.010;19.972;2023-05-01T00:11:09;12.00;11.75;10.75
35654;PMS1003;21773;50.010;19.972;2023-05-01T00:14:14;13.00;11.40;10.00
35654;PMS1003;21773;50.010;19.972;2023-05-01T00:17:18;11.67;11.00;10.00
35654;PMS1003;21773;50.010;19.972;2023-05-01T00:20:25;13.00;13.00;11.40
35654;PMS1003;21773;50.010;19.972;2023-05-01T00:23:29;11.40;10.60;9.40
35654;PMS1003;21773;50.010;19.972;2023-05-01T00:26:32;9.60;9.00;8.60
35654;PMS1003;21773;50.010;19.972;2023-05-01T00:29:37;12.00;10.00;9.00
35654;PMS1003;21773;50.010;19.972;2023-05-01T00:32:41;12.60;12.60;11.60
35654;PMS1003;21773;50.010;19.972;2023-05-01T00:35:44;13.00;13.00;11.20
35654;PMS1003;21773;50.010;19.972;2023-05-01T00:38:47;11.20;9.80;8.20
35654;PMS1003;21773;50.010;19.972;2023-05-01T00:41:50;10.00;10.00;9.00
35654;PMS1003;21773;50.010;19.972;2023-05-01T00:44:56;13.75;11.50;10.50
35654;PMS1003;21773;50.010;19.972;2023-05-01T00:48:00;17.40;15.40;13.60
35654;PMS1003;21773;50.010;19.972;2023-05-01T00:51:04;12.00;12.00;11.00
35654;PMS1003;21773;50.010;19.972;2023-05-01T00:54:09;14.00;13.00;12.00
35654;PMS1003;21773;50.010;19.972;2023-05-01T00:57:12;10.25;10.25;9.25
35654;PMS1003;21773;50.010;19.972;2023-05-01T01:00:18;13.60;13.00;11.40
35654;PMS1003;21773;50.010;19.972;2023-05-01T01:03:24;13.80;13.00;11.80
35654;PMS1003;21773;50.010;19.972;2023-05-01T01:06:30;10.60;10.40;9.40
35654;PMS1003;21773;50.010;19.972;2023-05-01T01:09:40;13.20;12.20;10.20
35654;PMS1003;21773;50.010;19.972;2023-05-01T01:12:53;14.00;13.00;12.00
35654;PMS1003;21773;50.010;19.972;2023-05-01T01:16:08;12.60;12.60;10.60
35654;PMS1003;21773;50.010;19.972;2023-05-01T01:19:32;12.00;12.00;11.00
35654;PMS1003;21773;50.010;19.972;2023-05-01T01:22:56;15.40;15.40;13.00
35654;PMS1003;21773;50.010;19.972;2023-05-01T01:26:12;13.25;12.00;11.00
35654;PMS1003;21773;50.010;19.972;2023-05-01T01:33:16;11.25;10.50;9.25
35654;PMS1003;21773;50.010;19.972;2023-05-01T01:36:38;13.40;13.40;12.00
35654;PMS1003;21773;50.010;19.972;2023-05-01T01:39:44;13.00;10.40;10.00
35654;PMS1003;21773;50.010;19.972;2023-05-01T01:42:52;11.80;11.20;9.80
35654;PMS1003;21773;50.010;19.972;2023-05-01T01:46:02;12.40;11.00;10.00
35654;PMS1003;21773;50.010;19.972;2023-05-01T01:49:11;9.75;9.00;8.75
35654;PMS1003;21773;50.010;19.972;2023-05-01T01:52:22;10.75;10.00;9.00
35654;PMS1003;21773;50.010;19.972;2023-05-01T01:55:28;11.00;11.00;9.00
35654;PMS1003;21773;50.010;19.972;2023-05-01T01:58:33;12.40;11.60;11.00
35654;PMS1003;21773;50.010;19.972;2023-05-01T02:01:40;14.25;13.25;12.00
35654;PMS1003;21773;50.010;19.972;2023-05-01T02:04:46;10.00;10.00;9.50
35654;PMS1003;21773;50.010;19.972;2023-05-01T02:07:53;13.00;13.00;12.40
35654;PMS1003;21773;50.010;19.972;2023-05-01T02:10:58;12.60;11.60;10.00
35654;PMS1003;21773;50.010;19.972;2023-05-01T02:14:03;11.40;11.40;10.40
35654;PMS1003;21773;50.010;19.972;2023-05-01T02:17:09;12.00;11.00;10.00
35654;PMS1003;21773;50.010;19.972;2023-05-01T02:20:13;11.00;10.40;9.60
35654;PMS1003;21773;50.010;19.972;2023-05-01T02:23:19;12.80;12.80;12.00
35654;PMS1003;21773;50.010;19.972;2023-05-01T02:26:25;11.75;10.00;9.00
35654;PMS1003;21773;50.010;19.972;2023-05-01T02:29:31;13.00;12.00;11.00
35654;PMS1003;21773;50.010;19.972;2023-05-01T02:32:34;15.00;12.60;11.40
35654;PMS1003;21773;50.010;19.972;2023-05-01T02:35:39;12.40;11.40;11.00
35654;PMS1003;21773;50.010;19.972;2023-05-01T02:38:46;9.00;8.00;7.00
35654;PMS1003;21773;50.010;19.972;2023-05-01T02:41:51;10.20;9.80;9.20
35654;PMS1003;21773;50.010;19.972;2023-05-01T02:45:00;11.40;10.00;9.00
35654;PMS1003;21773;50.010;19.972;2023-05-01T02:48:06;11.25;10.25;9.25
35654;PMS1003;21773;50.010;19.972;2023-05-01T02:51:11;14.40;13.40;12.40
35654;PMS1003;21773;50.010;19.972;2023-05-01T02:54:17;10.00;10.00;9.00
35654;PMS1003;21773;50.010;19.972;2023-05-01T02:57:21;14.00;13.00;12.00
35654;PMS1003;21773;50.010;19.972;2023-05-01T03:00:25;11.75;10.50;8.75
35654;PMS1003;21773;50.010;19.972;2023-05-01T03:03:29;13.00;12.50;11.50
35654;PMS1003;21773;50.010;19.972;2023-05-01T03:06:32;15.00;13.00;11.00
35654;PMS1003;21773;50.010;19.972;2023-05-01T03:09:37;10.80;10.80;9.80
35654;PMS1003;21773;50.010;19.972;2023-05-01T03:12:40;13.00;13.00;12.00
35654;PMS1003;21773;50.010;19.972;2023-05-01T03:15:44;14.60;13.20;11.20
35654;PMS1003;21773;50.010;19.972;2023-05-01T03:18:48;13.40;11.60;10.60
35654;PMS1003;21773;50.010;19.972;2023-05-01T03:21:51;14.60;14.00;13.00
35654;PMS1003;21773;50.010;19.972;2023-05-01T03:24:56;9.00;9.00;9.00
35654;PMS1003;21773;50.010;19.972;2023-05-01T03:27:59;14.60;13.20;11.60
35654;PMS1003;21773;50.010;19.972;2023-05-01T03:31:03;13.00;11.00;9.60
35654;PMS1003;21773;50.010;19.972;2023-05-01T03:34:07;7.75;7.00;5.75
35654;PMS1003;21773;50.010;19.972;2023-05-01T03:37:11;13.40;11.40;10.00
35654;PMS1003;21773;50.010;19.972;2023-05-01T03:40:15;12.25;12.25;11.25
35654;PMS1003;21773;50.010;19.972;2023-05-01T03:43:38;11.40;11.20;10.20
35654;PMS1003;21773;50.010;19.972;2023-05-01T03:46:50;12.00;12.00;10.40
35654;PMS1003;21773;50.010;19.972;2023-05-01T03:49:58;11.60;10.60;9.60
35654;PMS1003;21773;50.010;19.972;2023-05-01T03:53:05;11.40;10.40;9.40
35654;PMS1003;21773;50.010;19.972;2023-05-01T03:56:11;12.00;11.00;10.50
35654;PMS1003;21773;50.010;19.972;2023-05-01T03:59:14;12.20;11.60;10.60
35654;PMS1003;21773;50.010;19.972;2023-05-01T04:02:17;8.40;7.40;6.20
35654;PMS1003;21773;50.010;19.972;2023-05-01T04:05:21;10.40;10.40;9.00
35654;PMS1003;21773;50.010;19.972;2023-05-01T04:08:27;11.20;10.60;9.60
35654;PMS1003;21773;50.010;19.972;2023-05-01T04:11:32;11.20;10.20;9.80
35654;PMS1003;21773;50.010;19.972;2023-05-01T04:14:35;14.60;13.60;12.60
35654;PMS1003;21773;50.010;19.972;2023-05-01T04:17:39;13.00;13.00;11.00
35654;PMS1003;21773;50.010;19.972;2023-05-01T04:20:44;12.00;12.00;11.00
35654;PMS1003;21773;50.010;19.972;2023-05-01T04:23:48;12.00;11.40;10.60
35654;PMS1003;21773;50.010;19.972;2023-05-01T04:26:53;12.00;11.25;10.25
35654;PMS1003;21773;50.010;19.972;2023-05-01T04:29:56;13.25;13.25;12.00
35654;PMS1003;21773;50.010;19.972;2023-05-01T04:33:00;14.00;12.00;10.40
35654;PMS1003;21773;50.010;19.972;2023-05-01T04:36:05;18.25;17.00;15.00
35654;PMS1003;21773;50.010;19.972;2023-05-01T04:39:09;15.33;13.67;12.67
35654;PMS1003;21773;50.010;19.972;2023-05-01T04:42:14;15.60;15.60;14.60
35654;PMS1003;21773;50.010;19.972;2023-05-01T04:45:17;17.75;16.00;14.75
35654;PMS1003;21773;50.010;19.972;2023-05-01T04:48:21;15.00;14.60;13.00
35654;PMS1003;21773;50.010;19.972;2023-05-01T04:51:24;14.50;13.00;12.00
35654;PMS1003;21773;50.010;19.972;2023-05-01T04:54:29;17.00;16.00;15.60
35654;PMS1003;21773;50.010;19.972;2023-05-01T04:57:35;18.40;16.40;14.40
35654;PMS1003;21773;50.010;19.972;2023-05-01T05:00:40;22.00;19.40;18.00
35654;PMS1003;21773;50.010;19.972;2023-05-01T05:03:49;18.00;17.00;15.00
35654;PMS1003;21773;50.010;19.972;2023-05-01T05:06:53;18.25;17.00;15.25
35654;PMS1003;21773;50.010;19.972;2023-05-01T05:10:06;18.00;17.00;15.40
35654;PMS1003;21773;50.010;19.972;2023-05-01T05:13:11;19.75;18.75;16.75
35654;PMS1003;21773;50.010;19.972;2023-05-01T05:16:15;19.00;17.00;15.25
35654;PMS1003;21773;50.010;19.972;2023-05-01T05:19:18;22.00;20.40;18.00
35654;PMS1003;21773;50.010;19.972;2023-05-01T05:22:22;19.50;18.50;17.50
35654;PMS1003;21773;50.010;19.972;2023-05-01T05:25:52;18.00;17.00;15.00
35654;PMS1003;21773;50.010;19.972;2023-05-01T05:28:57;16.50;14.50;12.00
35654;PMS1003;21773;50.010;19.972;2023-05-01T05:32:01;14.75;14.75;12.75
35654;PMS1003;21773;50.010;19.972;2023-05-01T05:35:04;18.50;17.50;16.50
35654;PMS1003;21773;50.010;19.972;2023-05-01T05:38:08;17.00;13.40;12.00
35654;PMS1003;21773;50.010;19.972;2023-05-01T05:41:14;17.00;16.80;15.80
35654;PMS1003;21773;50.010;19.972;2023-05-01T05:44:20;16.75;16.50;14.50
35654;PMS1003;21773;50.010;19.972;2023-05-01T05:47:23;18.50;18.00;15.00
35654;PMS1003;21773;50.010;19.972;2023-05-01T05:50:27;17.40;15.40;13.60
35654;PMS1003;21773;50.010;19.972;2023-05-01T05:53:31;15.00;14.20;12.60
35654;PMS1003;21773;50.010;19.972;2023-05-01T05:56:35;17.50;16.75;14.75
35654;PMS1003;21773;50.010;19.972;2023-05-01T05:59:40;16.00;16.00;14.00
35654;PMS1003;21773;50.010;19.972;2023-05-01T06:02:47;16.00;15.60;13.00
35654;PMS1003;21773;50.010;19.972;2023-05-01T06:05:53;16.60;15.60;14.00
35654;PMS1003;21773;50.010;19.972;2023-05-01T06:08:56;13.75;13.75;12.00
35654;PMS1003;21773;50.010;19.972;2023-05-01T06:12:00;15.60;15.40;13.00
35654;PMS1003;21773;50.010;19.972;2023-05-01T06:15:08;16.00;14.00;12.00
35654;PMS1003;21773;50.010;19.972;2023-05-01T06:18:17;18.00;17.00;15.40
35654;PMS1003;21773;50.010;19.972;2023-05-01T06:21:21;17.00;15.00;13.40
35654;PMS1003;21773;50.010;19.972;2023-05-01T06:24:24;16.00;15.00;12.00
35654;PMS1003;21773;50.010;19.972;2023-05-01T06:27:31;13.40;13.20;11.20
35654;PMS1003;21773;50.010;19.972;2023-05-01T06:30:35;13.75;13.00;12.00
35654;PMS1003;21773;50.010;19.972;2023-05-01T06:33:39;13.00;13.00;12.00
35654;PMS1003;21773;50.010;19.972;2023-05-01T06:36:53;15.60;12.60;11.60
35654;PMS1003;21773;50.010;19.972;2023-05-01T06:39:57;16.40;15.40;14.00
35654;PMS1003;21773;50.010;19.972;2023-05-01T06:43:00;13.40;12.00;11.00
35654;PMS1003;21773;50.010;19.972;2023-05-01T06:46:05;9.40;9.00;8.00
35654;PMS1003;21773;50.010;19.972;2023-05-01T06:49:08;11.00;9.60;8.60
35654;PMS1003;21773;50.010;19.972;2023-05-01T06:52:12;11.20;10.80;9.60
35654;PMS1003;21773;50.010;19.972;2023-05-01T06:55:15;12.20;11.20;10.00
35654;PMS1003;21773;50.010;19.972;2023-05-01T06:58:19;12.00;11.00;9.00
35654;PMS1003;21773;50.010;19.972;2023-05-01T07:01:26;9.20;9.20;8.00
35654;PMS1003;21773;50.010;19.972;2023-05-01T07:04:33;11.00;10.00;9.00
35654;PMS1003;21773;50.010;19.972;2023-05-01T07:07:37;8.00;6.00;6.00
35654;PMS1003;21773;50.010;19.972;2023-05-01T07:10:50;9.60;8.60;8.00
35654;PMS1003;21773;50.010;19.972;2023-05-01T07:13:54;7.00;7.00;6.00
35654;PMS1003;21773;50.010;19.972;2023-05-01T07:16:59;8.00;8.00;7.00
35654;PMS1003;21773;50.010;19.972;2023-05-01T07:20:03;6.00;6.00;5.80
35654;PMS1003;21773;50.010;19.972;2023-05-01T07:23:07;7.00;7.00;6.40
35654;PMS1003;21773;50.010;19.972;2023-05-01T07:26:10;9.40;9.00;8.00
35654;PMS1003;21773;50.010;19.972;2023-05-01T07:29:13;7.00;7.00;6.40
35654;PMS1003;21773;50.010;19.972;2023-05-01T07:32:18;6.20;5.20;5.00
35654;PMS1003;21773;50.010;19.972;2023-05-01T07:35:22;8.00;7.00;7.00
35654;PMS1003;21773;50.010;19.972;2023-05-01T07:38:25;7.60;7.00;6.60
35654;PMS1003;21773;50.010;19.972;2023-05-01T07:41:29;8.00;7.00;7.00
35654;PMS1003;21773;50.010;19.972;2023-05-01T07:44:32;9.00;9.00;9.00
35654;PMS1003;21773;50.010;19.972;2023-05-01T07:47:37;9.00;8.00;8.00
35654;PMS1003;21773;50.010;19.972;2023-05-01T07:50:41;7.00;6.20;6.00
35654;PMS1003;21773;50.010;19.972;2023-05-01T07:53:44;9.00;9.00;8.00
35654;PMS1003;21773;50.010;19.972;2023-05-01T07:56:48;8.00;8.00;7.00
35654;PMS1003;21773;50.010;19.972;2023-05-01T07:59:52;7.50;7.00;7.00
35654;PMS1003;21773;50.010;19.972;2023-05-01T08:02:59;6.60;6.00;6.00
35654;PMS1003;21773;50.010;19.972;2023-05-01T08:06:02;5.00;5.00;5.00
35654;PMS1003;21773;50.010;19.972;2023-05-01T08:09:06;6.20;6.20;6.20
35654;PMS1003;21773;50.010;19.972;2023-05-01T08:12:10;6.00;6.00;5.50
35654;PMS1003;21773;50.010;19.972;2023-05-01T08:15:13;6.00;6.00;6.00
35654;PMS1003;21773;50.010;19.972;2023-05-01T08:18:18;9.60;9.00;8.00
35654;PMS1003;21773;50.010;19.972;2023-05-01T08:21:22;7.60;7.60;7.00
35654;PMS1003;21773;50.010;19.972;2023-05-01T08:24:25;8.00;8.00;7.60
35654;PMS1003;21773;50.010;19.972;2023-05-01T08:27:28;6.00;5.50;5.00
35654;PMS1003;21773;50.010;19.972;2023-05-01T08:30:32;6.00;6.00;6.00
35654;PMS1003;21773;50.010;19.972;2023-05-01T08:33:36;4.80;4.80;4.00
35654;PMS1003;21773;50.010;19.972;2023-05-01T08:36:42;7.00;6.00;5.60
35654;PMS1003;21773;50.010;19.972;2023-05-01T08:39:46;5.00;4.00;3.40
35654;PMS1003;21773;50.010;19.972;2023-05-01T08:42:49;4.00;4.00;3.00
35654;PMS1003;21773;50.010;19.972;2023-05-01T08:45:53;5.00;5.00;4.00
35654;PMS1003;21773;50.010;19.972;2023-05-01T08:49:02;5.00;5.00;4.25
35654;PMS1003;21773;50.010;19.972;2023-05-01T08:52:08;7.00;7.00;6.50
35654;PMS1003;21773;50.010;19.972;2023-05-01T08:55:14;8.75;7.00;6.00
35654;PMS1003;21773;50.010;19.972;2023-05-01T08:58:17;7.00;6.40;6.00
35654;PMS1003;21773;50.010;19.972;2023-05-01T09:01:22;6.80;6.20;6.00
35654;PMS1003;21773;50.010;19.972;2023-05-01T09:04:29;5.60;5.60;5.40
35654;PMS1003;21773;50.010;19.972;2023-05-01T09:07:34;9.00;9.00;8.00
35654;PMS1003;21773;50.010;19.972;2023-05-01T09:10:41;8.20;8.00;7.00
35654;PMS1003;21773;50.010;19.972;2023-05-01T09:13:47;8.40;8.40;7.60
35654;PMS1003;21773;50.010;19.972;2023-05-01T09:16:51;7.00;6.00;6.00
35654;PMS1003;21773;50.010;19.972;2023-05-01T09:19:56;8.00;8.00;7.00
35654;PMS1003;21773;50.010;19.972;2023-05-01T09:23:00;7.60;6.60;6.00
35654;PMS1003;21773;50.010;19.972;2023-05-01T09:26:03;8.00;7.00;7.00
35654;PMS1003;21773;50.010;19.972;2023-05-01T09:29:07;6.00;6.00;5.00
35654;PMS1003;21773;50.010;19.972;2023-05-01T09:32:12;5.25;5.25;4.25
35654;PMS1003;21773;50.010;19.972;2023-05-01T09:35:18;6.00;6.00;5.60
35654;PMS1003;21773;50.010;19.972;2023-05-01T09:38:22;4.00;4.00;4.00
35654;PMS1003;21773;50.010;19.972;2023-05-01T09:41:27;4.60;4.60;4.00
35654;PMS1003;21773;50.010;19.972;2023-05-01T09:44:39;5.00;5.00;5.00
35654;PMS1003;21773;50.010;19.972;2023-05-01T09:47:44;7.00;6.00;6.00
35654;PMS1003;21773;50.010;19.972;2023-05-01T09:50:49;6.00;6.00;6.00
35654;PMS1003;21773;50.010;19.972;2023-05-01T09:53:53;6.00;5.60;5.00
35654;PMS1003;21773;50.010;19.972;2023-05-01T09:56:57;5.00;5.00;4.00
35654;PMS1003;21773;50.010;19.972;2023-05-01T10:00:01;5.00;4.00;4.00
35654;PMS1003;21773;50.010;19.972;2023-05-01T10:03:11;6.00;5.00;4.60
35654;PMS1003;21773;50.010;19.972;2023-05-01T10:06:26;6.00;5.00;5.00
35654;PMS1003;21773;50.010;19.972;2023-05-01T10:09:30;5.60;4.60;4.00
35654;PMS1003;21773;50.010;19.972;2023-05-01T10:12:33;3.00;3.00;2.20
35654;PMS1003;21773;50.010;19.972;2023-05-01T10:15:38;4.00;4.00;4.00
35654;PMS1003;21773;50.010;19.972;2023-05-01T10:18:41;5.00;5.00;5.00
35654;PMS1003;21773;50.010;19.972;2023-05-01T10:21:47;6.60;6.00;5.60
35654;PMS1003;21773;50.010;19.972;2023-05-01T10:24:51;6.00;6.00;5.00
35654;PMS1003;21773;50.010;19.972;2023-05-01T10:27:54;3.00;3.00;3.00
35654;PMS1003;21773;50.010;19.972;2023-05-01T10:30:59;5.20;5.00;5.00
35654;PMS1003;21773;50.010;19.972;2023-05-01T10:34:03;7.00;7.00;6.00
35654;PMS1003;21773;50.010;19.972;2023-05-01T10:37:11;5.00;5.00;4.00
35654;PMS1003;21773;50.010;19.972;2023-05-01T10:43:50;5.60;5.60;5.00
35654;PMS1003;21773;50.010;19.972;2023-05-01T10:51:06;4.50;4.50;4.50
35654;PMS1003;21773;50.010;19.972;2023-05-01T10:54:22;5.00;4.33;4.00
35654;PMS1003;21773;50.010;19.972;2023-05-01T10:57:40;4.40;4.40;4.00
35654;PMS1003;21773;50.010;19.972;2023-05-01T11:00:44;5.00;5.00;4.50
35654;PMS1003;21773;50.010;19.972;2023-05-01T11:04:47;7.40;7.00;7.00
35654;PMS1003;21773;50.010;19.972;2023-05-01T11:11:46;5.60;5.40;4.40
35654;PMS1003;21773;50.010;19.972;2023-05-01T11:15:00;6.75;6.00;6.00
35654;PMS1003;21773;50.010;19.972;2023-05-01T11:18:07;7.40;6.60;6.00
35654;PMS1003;21773;50.010;19.972;2023-05-01T11:21:12;6.40;5.40;4.40
35654;PMS1003;21773;50.010;19.972;2023-05-01T11:24:17;8.00;8.00;7.00
35654;PMS1003;21773;50.010;19.972;2023-05-01T11:27:22;6.00;6.00;5.00
35654;PMS1003;21773;50.010;19.972;2023-05-01T11:30:26;8.00;7.00;6.00
35654;PMS1003;21773;50.010;19.972;2023-05-01T11:33:38;6.00;5.60;5.00
35654;PMS1003;21773;50.010;19.972;2023-05-01T11:36:46;7.50;7.00;7.00
35654;PMS1003;21773;50.010;19.972;2023-05-01T11:39:50;5.50;5.00;4.50
35654;PMS1003;21773;50.010;19.972;2023-05-01T11:43:00;6.75;6.00;6.00
35654;PMS1003;21773;50.010;19.972;2023-05-01T11:46:04;4.00;4.00;4.00
35654;PMS1003;21773;50.010;19.972;2023-05-01T11:49:09;6.00;5.60;5.00
35654;PMS1003;21773;50.010;19.972;2023-05-01T11:52:13;7.80;6.80;6.00
35654;PMS1003;21773;50.010;19.972;2023-05-01T11:55:17;7.50;6.50;6.00
35654;PMS1003;21773;50.010;19.972;2023-05-01T11:58:31;7.00;6.50;6.00
35654;PMS1003;21773;50.010;19.972;2023-05-01T12:01:37;8.00;7.00;7.00
35654;PMS1003;21773;50.010;19.972;2023-05-01T12:04:41;8.00;8.00;8.00
35654;PMS1003;21773;50.010;19.972;2023-05-01T12:07:45;6.20;6.00;6.00
35654;PMS1003;21773;50.010;19.972;2023-05-01T12:10:49;8.00;8.00;7.00
35654;PMS1003;21773;50.010;19.972;2023-05-01T12:13:55;6.00;6.00;5.50
35654;PMS1003;21773;50.010;19.972;2023-05-01T12:16:58;9.00;9.00;8.00
35654;PMS1003;21773;50.010;19.972;2023-05-01T12:20:04;9.00;8.00;7.00
35654;PMS1003;21773;50.010;19.972;2023-05-01T12:23:10;6.40;6.40;6.40
35654;PMS1003;21773;50.010;19.972;2023-05-01T12:26:15;8.00;7.40;7.00
35654;PMS1003;21773;50.010;19.972;2023-05-01T12:29:21;7.25;7.00;6.25
35654;PMS1003;21773;50.010;19.972;2023-05-01T12:32:28;8.00;7.00;6.67
35654;PMS1003;21773;50.010;19.972;2023-05-01T12:35:33;5.60;5.60;5.40
35654;PMS1003;21773;50.010;19.972;2023-05-01T12:38:37;5.20;5.20;5.00
35654;PMS1003;21773;50.010;19.972;2023-05-01T12:41:42;8.00;7.75;6.75
35654;PMS1003;21773;50.010;19.972;2023-05-01T12:44:48;7.25;7.25;7.00
35654;PMS1003;21773;50.010;19.972;2023-05-01T12:48:01;6.40;6.40;6.00
35654;PMS1003;21773;50.010;19.972;2023-05-01T12:51:16;6.00;6.00;6.00
35654;PMS1003;21773;50.010;19.972;2023-05-01T12:54:20;4.80;4.80;4.00
35654;PMS1003;21773;50.010;19.972;2023-05-01T12:57:25;6.00;5.00;5.00
35654;PMS1003;21773;50.010;19.972;2023-05-01T13:00:30;5.40;5.00;4.00
35654;PMS1003;21773;50.010;19.972;2023-05-01T13:03:44;5.40;5.40;5.00
35654;PMS1003;21773;50.010;19.972;2023-05-01T13:06:47;5.80;5.80;5.20
35654;PMS1003;21773;50.010;19.972;2023-05-01T13:09:51;6.75;6.75;5.75
35654;PMS1003;21773;50.010;19.972;2023-05-01T13:12:55;5.00;5.00;4.00
35654;PMS1003;21773;50.010;19.972;2023-05-01T13:16:07;4.40;4.40;4.00
35654;PMS1003;21773;50.010;19.972;2023-05-01T13:19:13;7.00;6.60;6.00
35654;PMS1003;21773;50.010;19.972;2023-05-01T13:22:28;4.00;4.00;3.00
35654;PMS1003;21773;50.010;19.972;2023-05-01T13:25:33;7.00;6.00;6.00
35654;PMS1003;21773;50.010;19.972;2023-05-01T13:28:41;5.00;5.00;5.00
35654;PMS1003;21773;50.010;19.972;2023-05-01T13:31:48;7.00;7.00;6.00
35654;PMS1003;21773;50.010;19.972;2023-05-01T13:34:51;7.00;7.00;6.20
35654;PMS1003;21773;50.010;19.972;2023-05-01T13:37:56;4.00;4.00;3.00
35654;PMS1003;21773;50.010;19.972;2023-05-01T13:40:59;5.60;5.60;5.00
35654;PMS1003;21773;50.010;19.972;2023-05-01T13:44:03;6.00;6.00;5.00
35654;PMS1003;21773;50.010;19.972;2023-05-01T13:47:10;5.20;5.00;4.80
35654;PMS1003;21773;50.010;19.972;2023-05-01T13:50:18;3.50;3.00;2.50
35654;PMS1003;21773;50.010;19.972;2023-05-01T13:53:22;5.00;5.00;4.00
35654;PMS1003;21773;50.010;19.972;2023-05-01T13:56:25;5.00;5.00;4.00
35654;PMS1003;21773;50.010;19.972;2023-05-01T13:59:30;5.50;5.50;5.00
35654;PMS1003;21773;50.010;19.972;2023-05-01T14:02:44;6.00;6.00;6.00
35654;PMS1003;21773;50.010;19.972;2023-05-01T14:05:50;8.00;8.00;7.00
35654;PMS1003;21773;50.010;19.972;2023-05-01T14:08:56;6.00;6.00;6.00
35654;PMS1003;21773;50.010;19.972;2023-05-01T14:12:00;6.00;5.00;4.40
35654;PMS1003;21773;50.010;19.972;2023-05-01T14:15:05;5.00;5.00;5.00
35654;PMS1003;21773;50.010;19.972;2023-05-01T14:18:14;4.00;4.00;4.00
35654;PMS1003;21773;50.010;19.972;2023-05-01T14:21:18;4.20;4.20;3.80
35654;PMS1003;21773;50.010;19.972;2023-05-01T14:24:23;5.00;5.00;4.40
35654;PMS1003;21773;50.010;19.972;2023-05-01T14:27:26;7.00;6.00;6.00
35654;PMS1003;21773;50.010;19.972;2023-05-01T14:30:30;4.60;4.60;4.20
35654;PMS1003;21773;50.010;19.972;2023-05-01T14:33:40;4.20;4.00;3.20
35654;PMS1003;21773;50.010;19.972;2023-05-01T14:36:44;4.00;4.00;4.00
35654;PMS1003;21773;50.010;19.972;2023-05-01T14:39:47;5.00;5.00;4.40
35654;PMS1003;21773;50.010;19.972;2023-05-01T14:42:51;4.00;4.00;4.00
35654;PMS1003;21773;50.010;19.972;2023-05-01T14:45:55;6.00;5.00;5.00
35654;PMS1003;21773;50.010;19.972;2023-05-01T14:49:00;5.60;5.60;5.00
35654;PMS1003;21773;50.010;19.972;2023-05-01T14:52:04;5.00;4.00;4.00
35654;PMS1003;21773;50.010;19.972;2023-05-01T14:55:09;7.00;7.00;6.60
35654;PMS1003;21773;50.010;19.972;2023-05-01T14:58:13;5.40;5.00;4.80
35654;PMS1003;21773;50.010;19.972;2023-05-01T15:01:17;7.00;7.00;7.00
35654;PMS1003;21773;50.010;19.972;2023-05-01T15:04:22;6.40;6.00;5.40
35654;PMS1003;21773;50.010;19.972;2023-05-01T15:07:26;7.00;7.00;7.00
35654;PMS1003;21773;50.010;19.972;2023-05-01T15:10:29;5.00;5.00;4.60
35654;PMS1003;21773;50.010;19.972;2023-05-01T15:13:33;6.00;5.80;5.80
35654;PMS1003;21773;50.010;19.972;2023-05-01T15:16:37;6.00;6.00;5.60
35654;PMS1003;21773;50.010;19.972;2023-05-01T15:19:41;6.00;6.00;5.40
35654;PMS1003;21773;50.010;19.972;2023-05-01T15:22:45;6.75;5.75;5.75
35654;PMS1003;21773;50.010;19.972;2023-05-01T15:25:48;6.00;6.00;5.00
35654;PMS1003;21773;50.010;19.972;2023-05-01T15:28:52;9.60;8.60;8.00
35654;PMS1003;21773;50.010;19.972;2023-05-01T15:31:55;7.00;7.00;6.80
35654;PMS1003;21773;50.010;19.972;2023-05-01T15:35:14;6.60;6.60;6.60
35654;PMS1003;21773;50.010;19.972;2023-05-01T15:38:17;8.50;7.50;7.00
35654;PMS1003;21773;50.010;19.972;2023-05-01T15:41:22;6.40;6.00;5.80
35654;PMS1003;21773;50.010;19.972;2023-05-01T15:44:25;4.50;4.50;4.00
35654;PMS1003;21773;50.010;19.972;2023-05-01T15:47:29;7.00;6.40;6.00
35654;PMS1003;21773;50.010;19.972;2023-05-01T15:50:34;6.33;5.33;5.00
35654;PMS1003;21773;50.010;19.972;2023-05-01T15:53:37;4.20;4.20;3.20
35654;PMS1003;21773;50.010;19.972;2023-05-01T15:56:40;5.00;5.00;4.75
35654;PMS1003;21773;50.010;19.972;2023-05-01T15:59:43;6.00;5.00;5.00
35654;PMS1003;21773;50.010;19.972;2023-05-01T16:02:47;6.50;6.00;5.00
35654;PMS1003;21773;50.010;19.972;2023-05-01T16:05:52;8.20;7.80;7.00
35654;PMS1003;21773;50.010;19.972;2023-05-01T16:08:56;7.00;6.00;6.00
35654;PMS1003;21773;50.010;19.972;2023-05-01T16:12:00;7.60;7.60;7.00
35654;PMS1003;21773;50.010;19.972;2023-05-01T16:15:04;10.00;10.00;9.00
35654;PMS1003;21773;50.010;19.972;2023-05-01T16:18:08;6.00;5.40;5.00
35654;PMS1003;21773;50.010;19.972;2023-05-01T16:21:19;8.00;8.00;7.00
35654;PMS1003;21773;50.010;19.972;2023-05-01T16:24:23;7.75;7.75;6.75
35654;PMS1003;21773;50.010;19.972;2023-05-01T16:27:27;9.00;9.00;8.00
35654;PMS1003;21773;50.010;19.972;2023-05-01T16:30:30;8.67;8.00;7.67
35654;PMS1003;21773;50.010;19.972;2023-05-01T16:33:34;7.25;6.25;6.00
35654;PMS1003;21773;50.010;19.972;2023-05-01T16:36:39;7.75;7.75;6.75
35654;PMS1003;21773;50.010;19.972;2023-05-01T16:39:44;6.00;5.00;5.00
35654;PMS1003;21773;50.010;19.972;2023-05-01T16:42:49;5.00;5.00;5.00
35654;PMS1003;21773;50.010;19.972;2023-05-01T16:45:54;6.00;6.00;5.25
35654;PMS1003;21773;50.010;19.972;2023-05-01T16:48:59;8.20;7.80;7.00
35654;PMS1003;21773;50.010;19.972;2023-05-01T16:52:04;7.00;7.00;7.00
35654;PMS1003;21773;50.010;19.972;2023-05-01T16:55:07;7.50;7.50;7.00
35654;PMS1003;21773;50.010;19.972;2023-05-01T16:58:11;8.00;8.00;7.33
35654;PMS1003;21773;50.010;19.972;2023-05-01T17:01:15;8.60;8.00;7.00
35654;PMS1003;21773;50.010;19.972;2023-05-01T17:04:18;9.00;8.00;7.00
35654;PMS1003;21773;50.010;19.972;2023-05-01T17:07:23;8.00;8.00;7.00
35654;PMS1003;21773;50.010;19.972;2023-05-01T17:10:26;9.50;9.00;9.00
35654;PMS1003;21773;50.010;19.972;2023-05-01T17:13:30;9.00;8.00;8.00
35654;PMS1003;21773;50.010;19.972;2023-05-01T17:16:33;9.00;9.00;8.00
35654;PMS1003;21773;50.010;19.972;2023-05-01T17:19:36;10.00;9.00;8.00
35654;PMS1003;21773;50.010;19.972;2023-05-01T17:22:41;11.00;9.00;8.00
35654;PMS1003;21773;50.010;19.972;2023-05-01T17:25:45;7.20;7.20;7.00
35654;PMS1003;21773;50.010;19.972;2023-05-01T17:28:48;6.80;6.80;6.00
35654;PMS1003;21773;50.010;19.972;2023-05-01T17:31:52;8.40;8.40;8.00
35654;PMS1003;21773;50.010;19.972;2023-05-01T17:34:56;8.50;8.00;7.50
35654;PMS1003;21773;50.010;19.972;2023-05-01T17:38:01;5.20;4.20;4.00
35654;PMS1003;21773;50.010;19.972;2023-05-01T17:41:04;7.00;7.00;7.00
35654;PMS1003;21773;50.010;19.972;2023-05-01T17:44:08;9.00;9.00;8.00
35654;PMS1003;21773;50.010;19.972;2023-05-01T17:47:11;11.20;10.80;10.00
35654;PMS1003;21773;50.010;19.972;2023-05-01T17:50:14;7.75;7.75;7.75